Time;durP1;ratioP1;P1;durP2;ratioP2;P2;SDS_P1;SDS_P2;PMS_P1;PMS_P2;Temp;Humidity;BMP_temperature;BMP_pressure;BME280_temperature;BME280_humidity;BME280_pressure;Samples;Min_cycle;Max_cycle;Signal;HPM_P1;HPM_P2
2024/02/13 00:01:42;;;;;;;20.97;12.63;;;3.30;99.90;;;;;;5094727;28;20623;-71
2024/02/13 00:04:10;;;;;;;20.00;13.53;;;3.30;99.90;;;;;;5093291;28;20261;-72
2024/02/13 00:06:36;;;;;;;16.53;13.13;;;3.30;99.90;;;;;;5095198;28;20169;-72
2024/02/13 00:09:02;;;;;;;17.23;12.70;;;3.20;99.90;;;;;;5095325;28;20698;-73
2024/02/13 00:11:27;;;;;;;16.43;13.37;;;3.20;99.90;;;;;;5095685;28;20194;-72
2024/02/13 00:13:53;;;;;;;20.10;13.67;;;3.20;99.90;;;;;;5095048;28;20694;-73
2024/02/13 00:16:20;;;;;;;16.97;13.90;;;3.10;99.90;;;;;;5083370;28;20177;-72
2024/02/13 00:18:50;;;;;;;19.03;14.70;;;3.10;99.90;;;;;;5074473;28;20170;-72
2024/02/13 00:21:16;;;;;;;18.30;14.57;;;3.10;99.90;;;;;;5074348;28;20201;-73
2024/02/13 00:23:42;;;;;;;20.43;14.50;;;3.00;99.90;;;;;;5074458;28;20166;-73
2024/02/13 00:26:09;;;;;;;21.10;14.13;;;3.10;99.90;;;;;;5074292;28;20669;-73
2024/02/13 00:28:37;;;;;;;18.93;14.37;;;3.10;99.90;;;;;;5081569;28;20280;-72
2024/02/13 00:31:06;;;;;;;21.30;15.17;;;3.00;99.90;;;;;;5094154;28;20192;-73
2024/02/13 00:33:31;;;;;;;24.20;15.13;;;3.00;99.90;;;;;;5094602;28;20653;-73
2024/02/13 00:35:57;;;;;;;26.67;14.80;;;3.10;99.90;;;;;;5094606;28;20201;-72
2024/02/13 00:38:24;;;;;;;19.50;15.40;;;3.00;99.90;;;;;;5094874;28;20638;-73
2024/02/13 00:40:50;;;;;;;23.37;15.20;;;3.00;99.90;;;;;;5094371;28;20650;-72
2024/02/13 00:43:17;;;;;;;18.87;14.93;;;3.00;99.90;;;;;;5087909;28;20210;-72
2024/02/13 00:45:43;;;;;;;25.70;15.57;;;3.00;99.90;;;;;;5074358;28;20170;-73
2024/02/13 00:48:10;;;;;;;24.67;15.27;;;3.00;99.90;;;;;;5056026;28;20202;-73
2024/02/13 00:50:35;;;;;;;25.23;15.70;;;3.00;99.90;;;;;;5074122;28;20220;-72
2024/02/13 00:53:01;;;;;;;23.97;15.80;;;3.00;99.90;;;;;;5074425;28;20585;-73
2024/02/13 00:55:27;;;;;;;25.50;16.13;;;3.10;99.90;;;;;;5073947;28;20178;-73
2024/02/13 00:57:54;;;;;;;34.70;17.83;;;3.10;99.90;;;;;;5078899;28;20208;-73
2024/02/13 01:00:19;;;;;;;26.40;16.67;;;3.10;99.90;;;;;;5093776;28;20272;-73
2024/02/13 01:02:45;;;;;;;30.83;16.20;;;3.20;99.90;;;;;;5093340;28;20257;-73
2024/02/13 01:05:11;;;;;;;26.57;16.20;;;3.20;99.90;;;;;;5094105;28;20634;-73
2024/02/13 01:07:37;;;;;;;26.67;16.63;;;3.20;99.90;;;;;;5094121;28;20248;-73
2024/02/13 01:10:06;;;;;;;26.47;16.47;;;3.30;99.90;;;;;;5093575;28;20293;-73
2024/02/13 01:12:32;;;;;;;27.47;16.23;;;3.30;99.90;;;;;;5076366;28;20215;-75
2024/02/13 01:14:57;;;;;;;27.83;16.83;;;3.40;99.90;;;;;;5073592;28;20174;-73
2024/02/13 01:17:23;;;;;;;30.07;17.07;;;3.40;99.90;;;;;;5073686;28;20582;-74
2024/02/13 01:19:48;;;;;;;29.87;17.43;;;3.40;99.90;;;;;;5073282;28;20177;-73
2024/02/13 01:22:14;;;;;;;29.37;17.77;;;3.40;99.90;;;;;;5073179;28;20224;-72
2024/02/13 01:24:40;;;;;;;29.47;16.60;;;3.50;99.90;;;;;;5073481;28;20703;-73
2024/02/13 01:27:06;;;;;;;33.03;17.77;;;3.50;99.90;;;;;;5089526;28;20535;-73
2024/02/13 01:29:35;;;;;;;31.83;18.23;;;3.50;99.90;;;;;;5093919;28;20307;-73
2024/02/13 01:32:01;;;;;;;30.60;18.03;;;3.50;99.90;;;;;;5093736;28;20212;-73
2024/02/13 01:34:30;;;;;;;30.53;17.33;;;3.50;99.90;;;;;;5085049;28;20174;-73
2024/02/13 01:36:57;;;;;;;29.87;18.20;;;3.40;99.90;;;;;;5073205;28;20537;-73
2024/02/13 01:39:24;;;;;;;28.97;16.90;;;3.40;99.90;;;;;;5080408;28;20177;-73
2024/02/13 01:41:50;;;;;;;28.97;15.67;;;3.40;99.90;;;;;;5092897;28;20257;-73
2024/02/13 01:44:16;;;;;;;25.70;15.93;;;3.30;99.90;;;;;;5093064;28;20227;-73
2024/02/13 01:46:41;;;;;;;33.70;17.13;;;3.20;99.90;;;;;;5093214;28;20576;-73
2024/02/13 01:49:09;;;;;;;27.07;16.33;;;3.20;99.90;;;;;;5092800;28;20281;-73
2024/02/13 01:51:37;;;;;;;29.50;16.50;;;3.10;99.90;;;;;;5092859;28;20650;-73
2024/02/13 01:54:05;;;;;;;31.27;16.57;;;3.00;99.90;;;;;;5086156;28;20245;-73
2024/02/13 01:56:33;;;;;;;25.13;16.70;;;2.90;99.90;;;;;;5072669;28;20162;-72
2024/02/13 01:58:59;;;;;;;23.83;17.63;;;2.90;99.90;;;;;;5072431;28;20216;-72
2024/02/13 02:01:29;;;;;;;36.30;18.03;;;2.90;99.90;;;;;;5054526;28;20339;-72
2024/02/13 02:03:59;;;;;;;31.07;17.37;;;2.90;99.90;;;;;;5072466;28;20643;-73
2024/02/13 02:06:25;;;;;;;35.93;17.00;;;2.90;99.90;;;;;;5072389;28;20205;-73
2024/02/13 02:08:50;;;;;;;28.17;17.73;;;3.00;99.90;;;;;;5091891;28;20267;-73
2024/02/13 02:11:16;;;;;;;35.87;17.67;;;2.90;99.90;;;;;;5092358;28;20689;-73
2024/02/13 02:13:42;;;;;;;29.67;18.40;;;2.90;99.90;;;;;;5092971;28;20170;-73
2024/02/13 02:16:08;;;;;;;30.17;16.70;;;3.00;99.90;;;;;;5092485;28;20165;-73
2024/02/13 02:18:34;;;;;;;27.03;17.33;;;3.00;99.90;;;;;;5083145;28;20659;-74
2024/02/13 02:20:59;;;;;;;32.20;18.20;;;3.00;99.90;;;;;;5071875;28;20204;-72
2024/02/13 02:23:26;;;;;;;27.87;15.97;;;3.10;99.90;;;;;;5072140;28;20177;-73
2024/02/13 02:25:52;;;;;;;34.87;16.73;;;3.10;99.90;;;;;;5079904;28;20170;-73
2024/02/13 02:28:18;;;;;;;29.23;17.63;;;3.10;99.90;;;;;;5092144;28;20292;-73
2024/02/13 02:30:47;;;;;;;40.23;16.23;;;3.10;99.90;;;;;;5092146;28;20181;-72
2024/02/13 02:33:15;;;;;;;31.97;15.53;;;3.10;99.90;;;;;;5092461;28;20174;-73
2024/02/13 02:35:41;;;;;;;29.10;16.40;;;3.10;99.90;;;;;;5082094;28;20231;-72
2024/02/13 02:38:09;;;;;;;25.87;16.67;;;3.00;99.90;;;;;;5071724;28;20184;-72
2024/02/13 02:40:35;;;;;;;38.23;17.70;;;3.00;99.90;;;;;;5071767;28;20243;-71
2024/02/13 02:43:02;;;;;;;23.43;16.37;;;3.00;99.90;;;;;;5071469;28;20178;-72
2024/02/13 02:45:28;;;;;;;27.30;15.67;;;3.00;99.90;;;;;;5071943;28;20185;-73
2024/02/13 02:47:53;;;;;;;27.23;15.40;;;3.00;99.90;;;;;;5071812;28;20186;-72
2024/02/13 02:50:19;;;;;;;23.67;15.43;;;3.00;99.90;;;;;;5080137;28;20552;-72
2024/02/13 02:52:45;;;;;;;22.33;16.20;;;3.00;99.90;;;;;;5092083;28;20631;-72
2024/02/13 02:55:10;;;;;;;28.27;15.67;;;2.90;99.90;;;;;;5092060;28;20230;-72
2024/02/13 02:57:37;;;;;;;34.30;16.77;;;3.00;99.90;;;;;;5093971;28;20764;-72
2024/02/13 03:00:10;;;;;;;27.77;16.23;;;2.90;99.90;;;;;;5091605;28;20296;-71
2024/02/13 03:02:40;;;;;;;28.80;16.83;;;2.90;99.90;;;;;;5090650;28;20161;-71
2024/02/13 03:05:07;;;;;;;32.43;18.00;;;3.00;99.90;;;;;;5071492;28;20190;-72
2024/02/13 03:07:33;;;;;;;42.70;21.60;;;3.00;99.90;;;;;;5071523;28;20166;-72
2024/02/13 03:09:59;;;;;;;32.97;17.90;;;3.00;99.90;;;;;;5053194;28;20553;-72
2024/02/13 03:12:25;;;;;;;33.67;18.30;;;3.00;99.90;;;;;;5071141;28;20674;-73
2024/02/13 03:14:55;;;;;;;45.20;25.07;;;3.10;99.90;;;;;;5071614;28;20239;-73
2024/02/13 03:17:22;;;;;;;66.13;26.77;;;3.10;99.90;;;;;;5071859;28;20651;-73
2024/02/13 03:19:48;;;;;;;39.50;18.87;;;3.10;99.90;;;;;;5091791;28;20777;-73
2024/02/13 03:22:14;;;;;;;31.13;16.37;;;3.10;99.90;;;;;;5091144;28;20219;-73
2024/02/13 03:24:39;;;;;;;30.80;15.87;;;3.10;99.90;;;;;;5074818;28;20170;-73
2024/02/13 03:27:05;;;;;;;35.67;17.80;;;3.00;99.90;;;;;;5071772;28;20702;-72
2024/02/13 03:29:31;;;;;;;39.50;20.17;;;3.10;99.90;;;;;;5071406;28;20248;-72
2024/02/13 03:31:57;;;;;;;59.03;28.43;;;3.00;99.90;;;;;;5064684;28;20277;-72
2024/02/13 03:34:22;;;;;;;58.17;31.87;;;3.10;99.90;;;;;;5091469;28;20672;-72
2024/02/13 03:36:49;;;;;;;44.77;22.20;;;3.10;99.90;;;;;;5091813;28;20166;-73
2024/02/13 03:39:14;;;;;;;41.33;19.60;;;3.10;99.90;;;;;;5091602;28;20169;-72
2024/02/13 03:41:46;;;;;;;38.37;19.93;;;3.10;99.90;;;;;;5091024;28;20231;-73
2024/02/13 03:44:12;;;;;;;38.00;20.03;;;3.10;99.90;;;;;;5091393;28;20530;-73
2024/02/13 03:46:39;;;;;;;34.50;18.53;;;3.20;99.90;;;;;;5079920;28;20212;-72
2024/02/13 03:49:05;;;;;;;36.57;20.57;;;3.20;99.90;;;;;;5070833;28;20294;-72
2024/02/13 03:51:31;;;;;;;31.77;17.00;;;3.20;99.90;;;;;;5070950;28;20615;-72
2024/02/13 03:53:57;;;;;;;32.77;17.90;;;3.20;99.90;;;;;;5071008;28;20254;-74
2024/02/13 03:56:22;;;;;;;32.97;16.53;;;3.30;99.90;;;;;;5070995;28;20213;-72
2024/02/13 03:58:48;;;;;;;33.10;16.47;;;3.30;99.90;;;;;;5073525;28;20265;-73
2024/02/13 04:01:14;;;;;;;32.57;16.47;;;3.40;99.90;;;;;;5091185;28;20263;-73
2024/02/13 04:03:40;;;;;;;28.33;16.17;;;3.40;99.90;;;;;;5080705;28;20693;-73
2024/02/13 04:06:08;;;;;;;31.10;17.67;;;3.40;99.90;;;;;;5071078;28;20163;-73
2024/02/13 04:08:34;;;;;;;34.70;17.83;;;3.40;99.90;;;;;;5071068;28;20331;-73
2024/02/13 04:11:03;;;;;;;29.03;16.10;;;3.40;99.90;;;;;;5070709;28;20218;-73
2024/02/13 04:13:29;;;;;;;32.33;16.13;;;3.40;99.90;;;;;;5071220;28;20235;-72
2024/02/13 04:15:54;;;;;;;28.27;15.70;;;3.40;99.90;;;;;;5071146;28;20220;-72
2024/02/13 04:18:20;;;;;;;30.30;15.70;;;3.30;99.90;;;;;;5072049;28;20189;-75
2024/02/13 04:20:46;;;;;;;36.33;15.83;;;3.30;99.90;;;;;;5072434;28;20240;-72
2024/02/13 04:23:11;;;;;;;26.57;15.67;;;3.30;99.90;;;;;;5072874;28;20651;-72
2024/02/13 04:25:37;;;;;;;29.63;15.93;;;3.30;99.90;;;;;;5071103;28;20178;-72
2024/02/13 04:28:03;;;;;;;26.70;14.83;;;3.40;99.90;;;;;;5084900;28;20670;-72
2024/02/13 04:30:30;;;;;;;25.47;14.47;;;3.30;99.90;;;;;;5090757;28;20239;-73
2024/02/13 04:32:56;;;;;;;26.77;15.27;;;3.40;99.90;;;;;;5090885;28;20542;-72
2024/02/13 04:35:21;;;;;;;26.97;14.97;;;3.40;99.90;;;;;;5090985;28;20165;-72
2024/02/13 04:37:47;;;;;;;29.83;15.63;;;3.40;99.90;;;;;;5091490;28;20596;-72
2024/02/13 04:40:13;;;;;;;24.43;14.83;;;3.40;99.90;;;;;;5094359;28;20234;-71
2024/02/13 04:42:39;;;;;;;31.23;14.37;;;3.40;99.90;;;;;;5081341;28;20220;-72
2024/02/13 04:45:05;;;;;;;27.70;14.17;;;3.30;99.90;;;;;;5074155;28;20177;-73
2024/02/13 04:47:31;;;;;;;27.33;13.67;;;3.30;99.90;;;;;;5074342;28;20231;-73
2024/02/13 04:49:59;;;;;;;26.73;13.73;;;3.20;99.90;;;;;;5074269;28;20205;-73
2024/02/13 04:52:24;;;;;;;20.53;13.53;;;3.10;99.90;;;;;;5073771;28;20174;-73
2024/02/13 04:54:51;;;;;;;26.03;14.83;;;3.00;99.90;;;;;;5075367;28;20702;-73
2024/02/13 04:57:17;;;;;;;26.27;14.57;;;3.00;99.90;;;;;;5074028;28;20181;-73
2024/02/13 04:59:49;;;;;;;31.73;13.30;;;2.90;99.90;;;;;;5074075;28;20174;-72
2024/02/13 05:02:21;;;;;;;28.57;14.57;;;2.80;99.90;;;;;;5073613;28;20174;-73
2024/02/13 05:07:31;;;;;;;21.83;13.80;;;2.70;99.90;;;;;;5074043;28;20207;-73
2024/02/13 05:09:58;;;;;;;23.73;13.97;;;2.70;99.90;;;;;;5080481;28;20197;-74
2024/02/13 05:12:24;;;;;;;19.27;13.30;;;2.60;99.90;;;;;;5093620;28;20181;-73
2024/02/13 05:14:51;;;;;;;24.30;14.17;;;2.50;99.90;;;;;;5094028;28;20635;-72
2024/02/13 05:17:17;;;;;;;26.23;14.73;;;2.50;99.90;;;;;;5093877;28;20681;-73
2024/02/13 05:19:43;;;;;;;24.70;13.90;;;2.40;99.90;;;;;;5092884;28;20177;-72
2024/02/13 05:22:09;;;;;;;20.87;13.73;;;2.40;99.90;;;;;;5093458;28;20542;-71
2024/02/13 05:24:35;;;;;;;23.10;14.30;;;2.40;99.90;;;;;;5093779;28;20203;-72
2024/02/13 05:27:02;;;;;;;24.10;14.40;;;2.30;99.90;;;;;;5088091;28;20178;-72
2024/02/13 05:29:28;;;;;;;22.57;14.70;;;2.30;99.90;;;;;;5073477;28;20227;-72
2024/02/13 05:31:54;;;;;;;24.43;14.33;;;2.20;99.90;;;;;;5073226;28;20182;-71
2024/02/13 05:34:20;;;;;;;30.07;15.17;;;2.10;99.90;;;;;;5073368;28;20166;-73
2024/02/13 05:36:46;;;;;;;21.97;13.47;;;2.10;99.90;;;;;;5073650;28;20162;-73
2024/02/13 05:39:12;;;;;;;24.20;12.73;;;2.00;99.90;;;;;;5055238;28;20186;-73
2024/02/13 05:41:40;;;;;;;16.67;11.83;;;1.90;99.90;;;;;;5077061;28;20266;-73
2024/02/13 05:44:06;;;;;;;18.70;11.47;;;1.90;99.90;;;;;;5094026;28;20173;-72
2024/02/13 05:46:32;;;;;;;15.27;10.90;;;1.90;99.90;;;;;;5076956;28;20713;-71
2024/02/13 05:49:00;;;;;;;19.50;11.40;;;1.90;99.90;;;;;;5093127;28;20292;-72
2024/02/13 05:51:26;;;;;;;17.57;10.00;;;1.80;99.90;;;;;;5092814;28;20198;-72
2024/02/13 05:53:52;;;;;;;13.83;10.30;;;1.80;99.90;;;;;;5078531;28;20217;-72
2024/02/13 05:56:18;;;;;;;14.17;9.77;;;1.90;99.90;;;;;;5072910;28;20210;-72
2024/02/13 05:58:44;;;;;;;12.73;9.93;;;1.90;99.90;;;;;;5072810;28;20177;-72
2024/02/13 06:01:13;;;;;;;19.13;10.73;;;1.90;99.90;;;;;;5072822;28;20277;-73
2024/02/13 06:03:39;;;;;;;14.93;9.03;;;2.00;99.90;;;;;;5054815;28;20178;-72
2024/02/13 06:06:05;;;;;;;18.73;10.03;;;2.00;99.90;;;;;;5054386;28;20700;-73
2024/02/13 06:08:32;;;;;;;12.97;9.10;;;2.10;99.90;;;;;;5074232;28;20217;-73
2024/02/13 06:10:59;;;;;;;18.23;10.43;;;2.10;99.90;;;;;;5072344;28;20258;-72
2024/02/13 06:13:26;;;;;;;19.17;10.10;;;2.10;99.90;;;;;;5072515;28;20205;-72
2024/02/13 06:15:53;;;;;;;13.17;9.73;;;2.20;99.90;;;;;;5072279;28;20202;-72
2024/02/13 06:18:18;;;;;;;12.37;10.03;;;2.20;99.90;;;;;;5080647;28;20307;-73
2024/02/13 06:20:44;;;;;;;10.87;9.57;;;2.10;99.90;;;;;;5087235;28;20292;-73
2024/02/13 06:23:10;;;;;;;11.97;10.30;;;2.10;99.90;;;;;;5072123;28;20257;-73
2024/02/13 06:25:36;;;;;;;18.23;9.83;;;2.20;99.90;;;;;;5072149;28;20312;-71
2024/02/13 06:28:01;;;;;;;16.60;10.33;;;2.20;99.90;;;;;;5071955;28;20671;-72
2024/02/13 06:30:28;;;;;;;14.30;10.47;;;2.20;99.90;;;;;;5071467;28;20194;-72
2024/02/13 06:32:53;;;;;;;12.27;9.70;;;2.10;99.90;;;;;;5072520;28;20167;-72
2024/02/13 06:35:19;;;;;;;11.93;9.63;;;2.00;99.90;;;;;;5074651;28;20177;-72
2024/02/13 06:37:45;;;;;;;17.73;10.63;;;2.00;99.90;;;;;;5092264;28;20183;-73
2024/02/13 06:40:11;;;;;;;17.73;10.33;;;1.90;99.90;;;;;;5075673;28;20322;-72
2024/02/13 06:42:37;;;;;;;19.10;10.63;;;1.90;99.90;;;;;;5053685;28;20178;-73
2024/02/13 06:45:03;;;;;;;12.73;9.67;;;1.90;99.90;;;;;;5071769;28;20257;-73
2024/02/13 06:47:28;;;;;;;14.27;9.83;;;2.00;99.90;;;;;;5071533;28;20185;-73
2024/02/13 06:49:54;;;;;;;18.70;10.23;;;1.90;99.90;;;;;;5085774;28;20661;-73
2024/02/13 06:52:21;;;;;;;15.33;9.80;;;1.80;99.90;;;;;;5091652;28;20619;-72
2024/02/13 06:54:47;;;;;;;14.07;10.70;;;1.80;99.90;;;;;;5091719;28;20177;-73
2024/02/13 06:57:12;;;;;;;12.57;10.03;;;1.80;99.90;;;;;;5091767;28;20242;-73
2024/02/13 06:59:38;;;;;;;16.73;12.13;;;1.80;99.90;;;;;;5091725;28;20242;-73
2024/02/13 07:02:03;;;;;;;17.13;10.33;;;1.80;99.90;;;;;;5090873;28;20189;-72
2024/02/13 07:04:29;;;;;;;14.73;10.60;;;1.80;99.90;;;;;;5082054;28;20190;-73
2024/02/13 07:06:57;;;;;;;17.23;10.27;;;1.90;99.90;;;;;;5076866;28;20177;-74
2024/02/13 07:09:23;;;;;;;13.57;10.37;;;1.90;99.90;;;;;;5072870;28;20266;-72
2024/02/13 07:11:50;;;;;;;18.83;10.53;;;2.00;99.90;;;;;;5073009;28;20220;-73
2024/02/13 07:14:17;;;;;;;13.07;10.27;;;2.10;99.90;;;;;;5091962;28;20157;-72
2024/02/13 07:16:43;;;;;;;17.63;10.07;;;2.20;99.90;;;;;;5090821;28;20177;-73
2024/02/13 07:19:09;;;;;;;14.83;9.33;;;2.30;99.90;;;;;;5091304;28;20257;-73
2024/02/13 07:21:35;;;;;;;11.40;9.03;;;2.50;99.90;;;;;;5075515;28;20263;-72
2024/02/13 07:24:01;;;;;;;16.37;9.63;;;2.60;99.90;;;;;;5091602;28;20456;-74
2024/02/13 07:26:27;;;;;;;16.03;9.97;;;2.70;99.90;;;;;;5094914;28;20602;-73
2024/02/13 07:28:52;;;;;;;10.13;8.67;;;2.90;99.90;;;;;;5080392;28;20231;-73
2024/02/13 07:31:19;;;;;;;12.50;8.83;;;2.90;99.90;;;;;;5070546;28;20190;-73
2024/02/13 07:33:47;;;;;;;14.17;9.33;;;3.00;99.90;;;;;;5071044;28;20198;-73
2024/02/13 07:36:13;;;;;;;13.93;9.13;;;3.10;99.90;;;;;;5070868;28;20186;-73
2024/02/13 07:38:39;;;;;;;14.33;9.23;;;3.20;99.90;;;;;;5072383;28;20238;-73
2024/02/13 07:41:06;;;;;;;15.17;9.23;;;3.30;99.90;;;;;;5070858;28;20194;-73
2024/02/13 07:43:32;;;;;;;15.30;9.97;;;3.40;99.90;;;;;;5071110;28;20289;-73
2024/02/13 07:45:57;;;;;;;14.40;10.03;;;3.50;99.90;;;;;;5072126;28;20264;-73
2024/02/13 07:48:23;;;;;;;15.10;10.03;;;3.60;99.90;;;;;;5070635;28;20256;-74
2024/02/13 07:50:49;;;;;;;11.10;9.60;;;3.70;99.90;;;;;;5070753;28;20217;-73
2024/02/13 07:53:16;;;;;;;9.77;8.73;;;3.80;99.90;;;;;;5071219;28;20531;-73
2024/02/13 07:55:44;;;;;;;16.17;9.50;;;3.90;99.90;;;;;;5071650;28;20614;-73
2024/02/13 07:58:10;;;;;;;17.27;9.30;;;4.20;99.90;;;;;;5070858;28;20170;-73
2024/02/13 08:00:36;;;;;;;18.80;10.60;;;4.70;99.90;;;;;;5083871;28;20212;-74
2024/02/13 08:03:02;;;;;;;14.83;9.07;;;5.30;99.90;;;;;;5091230;28;20208;-73
2024/02/13 08:05:33;;;;;;;14.80;7.27;;;6.00;99.90;;;;;;5092792;28;20185;-74
2024/02/13 08:08:02;;;;;;;8.63;7.90;;;6.50;99.90;;;;;;5094303;28;20627;-73
2024/02/13 08:10:29;;;;;;;6.93;6.23;;;7.00;99.90;;;;;;5091189;28;20228;-74
2024/02/13 08:12:57;;;;;;;6.90;6.30;;;7.20;99.90;;;;;;5095029;28;20169;-73
2024/02/13 08:15:23;;;;;;;11.10;6.17;;;7.20;99.90;;;;;;5079856;28;20719;-73
2024/02/13 08:17:49;;;;;;;6.20;5.63;;;7.20;99.90;;;;;;5091458;28;20205;-72
2024/02/13 08:20:14;;;;;;;14.80;5.00;;;7.30;99.90;;;;;;5074268;28;20194;-72
2024/02/13 08:22:40;;;;;;;8.60;4.77;;;7.30;99.90;;;;;;5077002;28;20176;-73
2024/02/13 08:25:07;;;;;;;6.57;4.90;;;7.30;99.90;;;;;;5079889;28;20177;-73
2024/02/13 08:27:35;;;;;;;6.33;5.00;;;7.30;99.90;;;;;;5077290;28;20162;-72
2024/02/13 08:30:01;;;;;;;5.33;4.83;;;7.50;99.90;;;;;;5078570;28;20209;-73
2024/02/13 08:32:27;;;;;;;4.57;4.17;;;7.60;99.90;;;;;;5078060;28;20193;-73
2024/02/13 08:34:53;;;;;;;6.10;4.13;;;7.90;99.90;;;;;;5097805;28;20197;-73
2024/02/13 08:37:18;;;;;;;4.77;4.37;;;8.30;99.90;;;;;;5099084;28;20173;-73
2024/02/13 08:39:44;;;;;;;4.13;3.73;;;8.50;99.90;;;;;;5097173;28;20188;-73
2024/02/13 08:42:09;;;;;;;5.27;3.73;;;8.70;99.90;;;;;;5079921;28;20213;-73
2024/02/13 08:44:35;;;;;;;3.83;3.33;;;9.00;99.90;;;;;;5058619;28;20746;-74
2024/02/13 08:47:01;;;;;;;5.83;3.90;;;9.20;99.90;;;;;;5077104;28;20194;-74
2024/02/13 08:49:26;;;;;;;4.50;3.33;;;9.50;99.90;;;;;;5075855;28;20210;-73
2024/02/13 08:51:53;;;;;;;5.67;3.23;;;9.90;99.90;;;;;;5075591;28;20205;-74
2024/02/13 08:54:18;;;;;;;6.23;3.10;;;10.20;99.90;;;;;;5075864;28;20193;-74
2024/02/13 08:56:44;;;;;;;3.27;2.83;;;10.50;99.90;;;;;;5077849;28;20178;-73
2024/02/13 08:59:10;;;;;;;4.37;3.27;;;10.60;99.90;;;;;;5076724;28;20236;-74
2024/02/13 09:01:36;;;;;;;3.10;2.80;;;10.70;99.90;;;;;;5074406;28;20271;-73
2024/02/13 09:04:02;;;;;;;6.03;3.50;;;10.80;99.90;;;;;;5074257;28;20174;-73
2024/02/13 09:06:28;;;;;;;4.03;3.00;;;10.90;99.90;;;;;;5078577;28;20186;-75
2024/02/13 09:08:54;;;;;;;6.37;3.00;;;11.00;99.90;;;;;;5090665;28;20234;-74
2024/02/13 09:11:20;;;;;;;3.73;3.27;;;10.90;99.90;;;;;;5076809;28;20196;-73
2024/02/13 09:13:46;;;;;;;5.83;3.10;;;10.60;99.90;;;;;;5097478;28;20209;-74
2024/02/13 09:16:13;;;;;;;3.33;3.03;;;10.30;99.90;;;;;;5093885;28;20635;-73
2024/02/13 09:18:39;;;;;;;4.90;3.10;;;10.30;99.90;;;;;;5093928;28;20177;-72
2024/02/13 09:21:06;;;;;;;5.43;3.30;;;10.20;99.90;;;;;;5093544;28;20193;-73
2024/02/13 09:23:33;;;;;;;7.43;3.00;;;10.50;99.90;;;;;;5093643;28;20188;-72
2024/02/13 09:25:59;;;;;;;4.03;2.90;;;10.60;99.90;;;;;;5093292;28;20172;-71
2024/02/13 09:28:26;;;;;;;5.40;2.93;;;10.80;99.90;;;;;;5074361;28;20202;-73
2024/02/13 09:30:51;;;;;;;4.43;2.70;;;11.10;99.90;;;;;;5072904;28;20194;-74
2024/02/13 09:33:20;;;;;;;3.27;2.70;;;11.30;99.90;;;;;;5073120;28;20174;-73
2024/02/13 09:35:45;;;;;;;4.20;2.70;;;11.70;99.90;;;;;;5055177;28;20248;-73
2024/02/13 09:38:11;;;;;;;3.53;2.70;;;11.90;99.90;;;;;;5073144;28;20217;-73
2024/02/13 09:40:37;;;;;;;4.07;2.60;;;12.10;99.90;;;;;;5072753;28;20662;-72
2024/02/13 09:43:03;;;;;;;5.50;2.80;;;11.90;99.90;;;;;;5073836;28;20186;-72
2024/02/13 09:45:29;;;;;;;5.40;2.87;;;11.80;99.90;;;;;;5072865;28;20182;-73
2024/02/13 09:48:02;;;;;;;4.17;2.60;;;12.10;99.90;;;;;;5073000;28;20227;-73
2024/02/13 09:50:36;;;;;;;3.43;2.70;;;12.40;99.90;;;;;;5072482;28;20561;-73
2024/02/13 09:53:04;;;;;;;2.60;2.30;;;12.60;99.90;;;;;;5072783;28;20162;-72
2024/02/13 09:55:32;;;;;;;9.03;3.33;;;12.80;99.90;;;;;;5073416;28;20190;-72
2024/02/13 09:57:58;;;;;;;3.27;2.70;;;12.90;99.90;;;;;;5055132;28;20243;-73
2024/02/13 10:00:23;;;;;;;4.10;2.87;;;12.90;99.90;;;;;;5073375;28;20683;-73
2024/02/13 10:02:50;;;;;;;4.50;2.60;;;12.90;99.90;;;;;;5072016;28;20166;-73
2024/02/13 10:05:16;;;;;;;4.30;2.43;;;12.90;99.90;;;;;;5072487;28;20162;-73
2024/02/13 10:07:43;;;;;;;2.90;2.40;;;12.90;99.90;;;;;;5072680;28;20166;-73
2024/02/13 10:10:13;;;;;;;5.20;2.80;;;13.20;99.90;;;;;;5082088;28;20251;-72
2024/02/13 10:12:55;;;;;;;3.73;2.63;;;13.30;99.90;;;;;;5092264;28;20208;-72
2024/02/13 10:15:24;;;;;;;5.97;2.90;;;13.20;99.90;;;;;;5092243;28;20252;-73
2024/02/13 10:17:51;;;;;;;2.80;2.60;;;12.80;99.90;;;;;;5073929;28;20545;-73
2024/02/13 10:20:20;;;;;;;3.53;2.50;;;12.90;99.90;;;;;;5092177;28;20238;-72
2024/02/13 10:22:50;;;;;;;2.83;2.47;;;12.90;99.90;;;;;;5078652;28;20174;-73
2024/02/13 10:25:21;;;;;;;4.20;2.70;;;13.00;99.90;;;;;;5072146;28;20522;-73
2024/02/13 10:27:53;;;;;;;6.47;2.80;;;13.30;99.90;;;;;;5072122;28;20594;-74
2024/02/13 10:30:27;;;;;;;2.50;2.30;;;13.50;99.90;;;;;;5071458;28;20186;-73
2024/02/13 10:32:53;;;;;;;3.33;2.40;;;13.80;99.90;;;;;;5071697;28;20594;-72
2024/02/13 10:35:23;;;;;;;3.47;2.33;;;13.70;99.90;;;;;;5071596;28;20219;-72
2024/02/13 10:37:49;;;;;;;3.97;2.50;;;13.80;99.90;;;;;;5083400;28;20661;-73
2024/02/13 10:40:20;;;;;;;2.93;2.10;;;14.10;99.90;;;;;;5091839;28;20197;-73
2024/02/13 10:42:45;;;;;;;4.20;2.60;;;14.50;99.90;;;;;;5092098;28;20165;-72
2024/02/13 10:45:14;;;;;;;3.93;2.50;;;15.10;99.90;;;;;;5091979;28;20169;-72
2024/02/13 10:47:49;;;;;;;3.60;2.50;;;15.10;99.90;;;;;;5091950;28;20170;-72
2024/02/13 10:50:15;;;;;;;3.23;2.20;;;15.30;99.90;;;;;;5089944;28;20265;-72
2024/02/13 10:52:41;;;;;;;4.93;2.37;;;15.40;99.90;;;;;;5091508;28;20181;-72
2024/02/13 10:55:10;;;;;;;6.83;2.67;;;15.30;99.90;;;;;;5091838;28;20581;-72
2024/02/13 10:57:37;;;;;;;2.63;2.20;;;15.30;99.90;;;;;;5089905;28;20174;-74
2024/02/13 11:00:08;;;;;;;6.80;2.60;;;15.10;99.90;;;;;;5091364;28;20201;-73
2024/02/13 11:02:36;;;;;;;6.57;2.40;;;15.00;99.90;;;;;;5091234;28;20173;-74
2024/02/13 11:05:08;;;;;;;2.90;2.50;;;14.50;99.90;;;;;;5089764;28;20192;-73
2024/02/13 11:07:35;;;;;;;4.20;2.70;;;14.30;99.90;;;;;;5091400;28;20205;-74
2024/02/13 11:10:08;;;;;;;3.00;2.70;;;14.00;99.90;;;;;;5090591;28;20232;-72
2024/02/13 11:12:35;;;;;;;3.97;2.27;;;13.90;99.90;;;;;;5090991;28;20176;-73
2024/02/13 11:15:14;;;;;;;3.53;2.60;;;13.50;99.90;;;;;;5091404;28;20516;-73
2024/02/13 11:17:46;;;;;;;6.23;2.90;;;13.20;99.90;;;;;;5076754;28;20174;-72
2024/02/13 11:20:15;;;;;;;3.13;2.70;;;12.70;99.90;;;;;;5071285;28;20247;-71
2024/02/13 11:22:51;;;;;;;6.23;2.90;;;12.50;99.90;;;;;;5071705;28;20544;-74
2024/02/13 11:25:16;;;;;;;3.23;2.73;;;12.50;99.90;;;;;;5073747;28;20712;-74
2024/02/13 11:27:44;;;;;;;7.87;2.90;;;12.50;99.90;;;;;;5073592;28;20182;-73
2024/02/13 11:30:20;;;;;;;3.00;2.70;;;12.90;99.90;;;;;;5072820;28;20194;-73
2024/02/13 11:32:46;;;;;;;3.43;2.10;;;13.30;99.90;;;;;;5089500;28;20173;-74
2024/02/13 11:35:16;;;;;;;2.87;2.30;;;13.70;99.90;;;;;;5094298;28;20180;-75
2024/02/13 11:37:42;;;;;;;4.43;2.80;;;13.60;99.90;;;;;;5093803;28;20252;-73
2024/02/13 11:40:12;;;;;;;3.63;2.70;;;13.50;99.90;;;;;;5096139;28;20223;-74
2024/02/13 11:42:38;;;;;;;4.30;2.80;;;13.80;99.90;;;;;;5094136;28;20180;-72
2024/02/13 11:45:08;;;;;;;3.73;2.63;;;13.80;99.90;;;;;;5076731;28;20197;-74
2024/02/13 11:47:33;;;;;;;3.33;2.80;;;13.80;99.90;;;;;;5074247;28;20170;-73
2024/02/13 11:49:59;;;;;;;3.03;2.60;;;13.30;99.90;;;;;;5077904;28;20535;-74
2024/02/13 11:52:25;;;;;;;6.10;2.70;;;12.70;99.90;;;;;;5082414;28;20201;-73
2024/02/13 11:54:51;;;;;;;3.63;2.60;;;12.40;99.90;;;;;;5078317;28;20190;-73
2024/02/13 11:57:18;;;;;;;3.10;2.60;;;12.20;99.90;;;;;;5078400;28;20181;-74
2024/02/13 11:59:55;;;;;;;3.73;2.70;;;12.20;99.90;;;;;;5077826;28;20557;-74
2024/02/13 12:02:21;;;;;;;2.47;2.30;;;12.10;99.90;;;;;;5077165;28;20176;-73
2024/02/13 12:04:48;;;;;;;3.60;2.50;;;12.00;99.90;;;;;;5077973;28;20198;-72
2024/02/13 12:07:13;;;;;;;3.10;2.40;;;12.20;99.90;;;;;;5082648;28;20755;-72
2024/02/13 12:09:44;;;;;;;3.10;2.80;;;12.50;99.90;;;;;;5094736;28;20654;-72
2024/02/13 12:12:12;;;;;;;3.20;2.80;;;12.60;99.90;;;;;;5094474;28;20176;-73
2024/02/13 12:14:39;;;;;;;5.83;3.67;;;12.80;99.90;;;;;;5094826;28;20170;-75
2024/02/13 12:17:07;;;;;;;11.87;8.27;;;13.00;99.90;;;;;;5095017;28;20631;-73
2024/02/13 12:19:43;;;;;;;8.67;5.23;;;13.30;99.90;;;;;;5093105;28;20174;-72
2024/02/13 12:22:16;;;;;;;4.23;3.20;;;13.70;99.90;;;;;;5094717;28;20642;-72
2024/02/13 12:24:46;;;;;;;4.53;2.50;;;13.60;99.90;;;;;;5094673;28;20238;-72
2024/02/13 12:27:14;;;;;;;3.93;2.40;;;13.60;99.90;;;;;;5094814;28;20197;-74
2024/02/13 12:29:41;;;;;;;4.03;3.20;;;13.90;99.90;;;;;;5076127;28;20208;-72
2024/02/13 12:32:16;;;;;;;8.97;6.23;;;14.00;99.90;;;;;;5094216;28;20780;-73
2024/02/13 12:34:47;;;;;;;3.87;2.73;;;14.00;99.90;;;;;;5087038;28;20170;-72
2024/02/13 12:37:24;;;;;;;4.20;3.77;;;13.70;99.90;;;;;;5074325;28;20166;-72
2024/02/13 12:39:50;;;;;;;6.60;2.80;;;13.40;99.90;;;;;;5077856;28;20176;-72
2024/02/13 12:42:17;;;;;;;3.60;2.77;;;13.10;99.90;;;;;;5094437;28;20169;-72
2024/02/13 12:44:44;;;;;;;4.67;3.10;;;12.90;99.90;;;;;;5076591;28;20204;-73